sensor_id;sensor_type;location;lat;lon;timestamp;temperature;humidity
15239;DHT22;7722;53.274;9.500;2023-03-01T00:00:07;-2.90;99.90
15239;DHT22;7722;53.274;9.500;2023-03-01T00:02:35;-2.80;99.90
15239;DHT22;7722;53.274;9.500;2023-03-01T00:05:03;-2.80;99.90
15239;DHT22;7722;53.274;9.500;2023-03-01T00:07:31;-2.80;99.90
15239;DHT22;7722;53.274;9.500;2023-03-01T00:09:58;-2.70;99.90
15239;DHT22;7722;53.274;9.500;2023-03-01T00:12:25;-2.80;99.90
15239;DHT22;7722;53.274;9.500;2023-03-01T00:14:53;-2.80;99.90
15239;DHT22;7722;53.274;9.500;2023-03-01T00:17:20;-2.80;99.90
15239;DHT22;7722;53.274;9.500;2023-03-01T00:19:47;-2.80;99.90
15239;DHT22;7722;53.274;9.500;2023-03-01T00:22:14;-2.80;99.90
15239;DHT22;7722;53.274;9.500;2023-03-01T00:24:43;-2.80;99.90
15239;DHT22;7722;53.274;9.500;2023-03-01T00:27:10;-2.90;99.90
15239;DHT22;7722;53.274;9.500;2023-03-01T00:29:37;-2.90;99.90
15239;DHT22;7722;53.274;9.500;2023-03-01T00:32:04;-3.00;99.90
15239;DHT22;7722;53.274;9.500;2023-03-01T00:34:31;-3.00;99.90
15239;DHT22;7722;53.274;9.500;2023-03-01T00:36:58;-2.90;99.90
15239;DHT22;7722;53.274;9.500;2023-03-01T00:39:31;-2.90;99.90
15239;DHT22;7722;53.274;9.500;2023-03-01T00:42:00;-3.10;99.90
15239;DHT22;7722;53.274;9.500;2023-03-01T00:44:27;-3.20;99.90
15239;DHT22;7722;53.274;9.500;2023-03-01T00:46:54;-3.20;99.90
15239;DHT22;7722;53.274;9.500;2023-03-01T00:49:21;-3.10;99.90
15239;DHT22;7722;53.274;9.500;2023-03-01T00:51:49;-3.10;99.90
15239;DHT22;7722;53.274;9.500;2023-03-01T00:54:17;-3.10;99.90
15239;DHT22;7722;53.274;9.500;2023-03-01T00:56:44;-3.10;99.90
15239;DHT22;7722;53.274;9.500;2023-03-01T00:59:12;-3.10;99.90
15239;DHT22;7722;53.274;9.500;2023-03-01T01:01:39;-3.20;99.90
15239;DHT22;7722;53.274;9.500;2023-03-01T01:04:08;-3.30;99.90
15239;DHT22;7722;53.274;9.500;2023-03-01T01:06:38;-3.40;99.90
15239;DHT22;7722;53.274;9.500;2023-03-01T01:09:09;-3.30;99.90
15239;DHT22;7722;53.274;9.500;2023-03-01T01:11:43;-3.20;99.90
15239;DHT22;7722;53.274;9.500;2023-03-01T01:14:13;-3.20;99.90
15239;DHT22;7722;53.274;9.500;2023-03-01T01:16:40;-3.20;99.90
15239;DHT22;7722;53.274;9.500;2023-03-01T01:19:07;-3.20;99.90
15239;DHT22;7722;53.274;9.500;2023-03-01T01:21:35;-3.30;99.90
15239;DHT22;7722;53.274;9.500;2023-03-01T01:24:03;-3.20;99.90
15239;DHT22;7722;53.274;9.500;2023-03-01T01:26:32;-3.20;99.90
15239;DHT22;7722;53.274;9.500;2023-03-01T01:29:01;-3.20;99.90
15239;DHT22;7722;53.274;9.500;2023-03-01T01:31:30;-3.20;99.90
15239;DHT22;7722;53.274;9.500;2023-03-01T01:33:59;-3.20;99.90
15239;DHT22;7722;53.274;9.500;2023-03-01T01:36:27;-3.20;99.90
15239;DHT22;7722;53.274;9.500;2023-03-01T01:38:54;-3.20;99.90
15239;DHT22;7722;53.274;9.500;2023-03-01T01:41:22;-3.30;99.90
15239;DHT22;7722;53.274;9.500;2023-03-01T01:44:11;-3.30;99.90
15239;DHT22;7722;53.274;9.500;2023-03-01T01:46:41;-3.40;99.90
15239;DHT22;7722;53.274;9.500;2023-03-01T01:52:08;-3.40;99.90
15239;DHT22;7722;53.274;9.500;2023-03-01T01:54:42;-3.40;99.90
15239;DHT22;7722;53.274;9.500;2023-03-01T01:57:16;-3.50;99.90
15239;DHT22;7722;53.274;9.500;2023-03-01T01:59:48;-3.50;99.90
15239;DHT22;7722;53.274;9.500;2023-03-01T02:02:19;-3.50;99.90
15239;DHT22;7722;53.274;9.500;2023-03-01T02:04:48;-3.40;99.90
15239;DHT22;7722;53.274;9.500;2023-03-01T02:07:18;-3.40;99.90
15239;DHT22;7722;53.274;9.500;2023-03-01T02:09:47;-3.60;99.90
15239;DHT22;7722;53.274;9.500;2023-03-01T02:12:17;-3.50;99.90
15239;DHT22;7722;53.274;9.500;2023-03-01T02:14:45;-3.50;99.90
15239;DHT22;7722;53.274;9.500;2023-03-01T02:17:14;-3.50;99.90
15239;DHT22;7722;53.274;9.500;2023-03-01T02:19:56;-3.60;99.90
15239;DHT22;7722;53.274;9.500;2023-03-01T02:22:27;-3.70;99.90
15239;DHT22;7722;53.274;9.500;2023-03-01T02:25:03;-3.70;99.90
15239;DHT22;7722;53.274;9.500;2023-03-01T02:27:40;-3.70;99.90
15239;DHT22;7722;53.274;9.500;2023-03-01T02:30:11;-3.80;99.90
15239;DHT22;7722;53.274;9.500;2023-03-01T02:32:39;-3.70;99.90
15239;DHT22;7722;53.274;9.500;2023-03-01T02:35:09;-3.70;99.90
15239;DHT22;7722;53.274;9.500;2023-03-01T02:37:37;-3.70;99.90
15239;DHT22;7722;53.274;9.500;2023-03-01T02:40:09;-3.70;99.90
15239;DHT22;7722;53.274;9.500;2023-03-01T02:42:45;-3.80;99.90
15239;DHT22;7722;53.274;9.500;2023-03-01T02:45:16;-3.80;99.90
15239;DHT22;7722;53.274;9.500;2023-03-01T02:47:43;-3.70;99.90
15239;DHT22;7722;53.274;9.500;2023-03-01T02:50:19;-3.70;99.90
15239;DHT22;7722;53.274;9.500;2023-03-01T02:52:55;-3.70;99.90
15239;DHT22;7722;53.274;9.500;2023-03-01T02:55:23;-3.70;99.90
15239;DHT22;7722;53.274;9.500;2023-03-01T02:57:50;-3.80;99.90
15239;DHT22;7722;53.274;9.500;2023-03-01T03:00:21;-3.70;99.90
15239;DHT22;7722;53.274;9.500;2023-03-01T03:02:52;-3.70;99.90
15239;DHT22;7722;53.274;9.500;2023-03-01T03:05:21;-3.70;99.90
15239;DHT22;7722;53.274;9.500;2023-03-01T03:07:49;-3.70;99.90
15239;DHT22;7722;53.274;9.500;2023-03-01T03:10:19;-3.80;99.90
15239;DHT22;7722;53.274;9.500;2023-03-01T03:12:49;-3.90;99.90
15239;DHT22;7722;53.274;9.500;2023-03-01T03:15:16;-4.00;99.90
15239;DHT22;7722;53.274;9.500;2023-03-01T03:17:45;-4.10;99.90
15239;DHT22;7722;53.274;9.500;2023-03-01T03:20:14;-4.10;99.90
15239;DHT22;7722;53.274;9.500;2023-03-01T03:22:45;-4.00;99.90
15239;DHT22;7722;53.274;9.500;2023-03-01T03:25:13;-4.00;99.90
15239;DHT22;7722;53.274;9.500;2023-03-01T03:27:42;-3.90;99.90
15239;DHT22;7722;53.274;9.500;2023-03-01T03:30:12;-4.00;99.90
15239;DHT22;7722;53.274;9.500;2023-03-01T03:32:39;-4.00;99.90
15239;DHT22;7722;53.274;9.500;2023-03-01T03:35:09;-3.90;99.90
15239;DHT22;7722;53.274;9.500;2023-03-01T03:37:37;-3.90;99.90
15239;DHT22;7722;53.274;9.500;2023-03-01T03:40:21;-3.80;99.90
15239;DHT22;7722;53.274;9.500;2023-03-01T03:42:48;-3.80;99.90
15239;DHT22;7722;53.274;9.500;2023-03-01T03:45:16;-3.70;99.90
15239;DHT22;7722;53.274;9.500;2023-03-01T03:47:43;-3.60;99.90
15239;DHT22;7722;53.274;9.500;2023-03-01T03:50:14;-3.50;99.90
15239;DHT22;7722;53.274;9.500;2023-03-01T03:52:41;-3.30;99.90
15239;DHT22;7722;53.274;9.500;2023-03-01T03:55:10;-3.30;99.90
15239;DHT22;7722;53.274;9.500;2023-03-01T03:57:38;-3.20;99.90
15239;DHT22;7722;53.274;9.500;2023-03-01T04:00:07;-3.00;99.90
15239;DHT22;7722;53.274;9.500;2023-03-01T04:02:38;-3.10;99.90
15239;DHT22;7722;53.274;9.500;2023-03-01T04:05:07;-3.10;99.90
15239;DHT22;7722;53.274;9.500;2023-03-01T04:07:36;-3.20;99.90
15239;DHT22;7722;53.274;9.500;2023-03-01T04:10:06;-3.20;99.90
15239;DHT22;7722;53.274;9.500;2023-03-01T04:12:33;-3.20;99.90
15239;DHT22;7722;53.274;9.500;2023-03-01T04:15:00;-3.20;99.90
15239;DHT22;7722;53.274;9.500;2023-03-01T04:17:29;-3.10;99.90
15239;DHT22;7722;53.274;9.500;2023-03-01T04:19:56;-3.10;99.90
15239;DHT22;7722;53.274;9.500;2023-03-01T04:22:24;-3.00;99.90
15239;DHT22;7722;53.274;9.500;2023-03-01T04:24:56;-3.00;99.90
15239;DHT22;7722;53.274;9.500;2023-03-01T04:27:23;-2.90;99.90
15239;DHT22;7722;53.274;9.500;2023-03-01T04:29:51;-2.70;99.90
15239;DHT22;7722;53.274;9.500;2023-03-01T04:32:18;-2.80;99.90
15239;DHT22;7722;53.274;9.500;2023-03-01T04:34:45;-2.80;99.90
15239;DHT22;7722;53.274;9.500;2023-03-01T04:37:12;-2.70;99.90
15239;DHT22;7722;53.274;9.500;2023-03-01T04:39:41;-2.70;99.90
15239;DHT22;7722;53.274;9.500;2023-03-01T04:42:14;-2.70;99.90
15239;DHT22;7722;53.274;9.500;2023-03-01T04:44:42;-2.70;99.90
15239;DHT22;7722;53.274;9.500;2023-03-01T04:47:09;-2.70;99.90
15239;DHT22;7722;53.274;9.500;2023-03-01T04:49:36;-2.70;99.90
15239;DHT22;7722;53.274;9.500;2023-03-01T04:52:04;-2.70;99.90
15239;DHT22;7722;53.274;9.500;2023-03-01T04:54:33;-2.80;99.90
15239;DHT22;7722;53.274;9.500;2023-03-01T04:57:01;-2.90;99.90
15239;DHT22;7722;53.274;9.500;2023-03-01T04:59:30;-2.90;99.90
15239;DHT22;7722;53.274;9.500;2023-03-01T05:01:57;-3.00;99.90
15239;DHT22;7722;53.274;9.500;2023-03-01T05:04:25;-3.10;99.90
15239;DHT22;7722;53.274;9.500;2023-03-01T05:06:52;-3.20;99.90
15239;DHT22;7722;53.274;9.500;2023-03-01T05:09:21;-3.10;99.90
15239;DHT22;7722;53.274;9.500;2023-03-01T05:11:48;-3.20;99.90
15239;DHT22;7722;53.274;9.500;2023-03-01T05:14:17;-3.10;99.90
15239;DHT22;7722;53.274;9.500;2023-03-01T05:16:46;-3.20;99.90
15239;DHT22;7722;53.274;9.500;2023-03-01T05:19:13;-3.30;99.90
15239;DHT22;7722;53.274;9.500;2023-03-01T05:21:42;-3.30;99.90
15239;DHT22;7722;53.274;9.500;2023-03-01T05:24:22;-3.30;99.90
15239;DHT22;7722;53.274;9.500;2023-03-01T05:26:50;-3.20;99.90
15239;DHT22;7722;53.274;9.500;2023-03-01T05:29:18;-3.40;99.90
15239;DHT22;7722;53.274;9.500;2023-03-01T05:31:52;-3.40;99.90
15239;DHT22;7722;53.274;9.500;2023-03-01T05:34:23;-3.40;99.90
15239;DHT22;7722;53.274;9.500;2023-03-01T05:36:51;-3.40;99.90
15239;DHT22;7722;53.274;9.500;2023-03-01T05:39:20;-3.40;99.90
15239;DHT22;7722;53.274;9.500;2023-03-01T05:41:48;-3.40;99.90
15239;DHT22;7722;53.274;9.500;2023-03-01T05:44:15;-3.40;99.90
15239;DHT22;7722;53.274;9.500;2023-03-01T05:46:42;-3.30;99.90
15239;DHT22;7722;53.274;9.500;2023-03-01T05:49:11;-3.20;99.90
15239;DHT22;7722;53.274;9.500;2023-03-01T05:51:39;-3.20;99.90
15239;DHT22;7722;53.274;9.500;2023-03-01T05:54:07;-3.00;99.90
15239;DHT22;7722;53.274;9.500;2023-03-01T05:56:34;-3.00;99.90
15239;DHT22;7722;53.274;9.500;2023-03-01T05:59:01;-2.90;99.90
15239;DHT22;7722;53.274;9.500;2023-03-01T06:01:30;-2.70;99.90
15239;DHT22;7722;53.274;9.500;2023-03-01T06:03:58;-2.60;99.90
15239;DHT22;7722;53.274;9.500;2023-03-01T06:06:26;-2.60;99.90
15239;DHT22;7722;53.274;9.500;2023-03-01T06:08:54;-2.50;99.90
15239;DHT22;7722;53.274;9.500;2023-03-01T06:11:21;-2.50;99.90
15239;DHT22;7722;53.274;9.500;2023-03-01T06:13:49;-2.50;99.90
15239;DHT22;7722;53.274;9.500;2023-03-01T06:16:16;-2.30;99.90
15239;DHT22;7722;53.274;9.500;2023-03-01T06:18:43;-2.30;99.90
15239;DHT22;7722;53.274;9.500;2023-03-01T06:21:10;-2.30;99.90
15239;DHT22;7722;53.274;9.500;2023-03-01T06:23:39;-2.20;99.90
15239;DHT22;7722;53.274;9.500;2023-03-01T06:26:07;-2.10;99.90
15239;DHT22;7722;53.274;9.500;2023-03-01T06:28:35;-2.00;99.90
15239;DHT22;7722;53.274;9.500;2023-03-01T06:31:02;-2.00;99.90
15239;DHT22;7722;53.274;9.500;2023-03-01T06:33:29;-2.00;99.90
15239;DHT22;7722;53.274;9.500;2023-03-01T06:35:57;-2.00;99.90
15239;DHT22;7722;53.274;9.500;2023-03-01T06:38:25;-1.80;99.90
15239;DHT22;7722;53.274;9.500;2023-03-01T06:40:55;-1.80;99.90
15239;DHT22;7722;53.274;9.500;2023-03-01T06:43:27;-1.80;99.90
15239;DHT22;7722;53.274;9.500;2023-03-01T06:46:05;-1.60;99.90
15239;DHT22;7722;53.274;9.500;2023-03-01T06:48:33;-1.60;99.90
15239;DHT22;7722;53.274;9.500;2023-03-01T06:51:00;-1.60;99.90
15239;DHT22;7722;53.274;9.500;2023-03-01T06:53:27;-1.50;99.90
15239;DHT22;7722;53.274;9.500;2023-03-01T06:55:56;-1.50;99.90
15239;DHT22;7722;53.274;9.500;2023-03-01T06:58:25;-1.50;99.90
15239;DHT22;7722;53.274;9.500;2023-03-01T07:00:53;-1.60;99.90
15239;DHT22;7722;53.274;9.500;2023-03-01T07:03:20;-1.50;99.90
15239;DHT22;7722;53.274;9.500;2023-03-01T07:05:48;-1.50;99.90
15239;DHT22;7722;53.274;9.500;2023-03-01T07:08:18;-1.40;99.90
15239;DHT22;7722;53.274;9.500;2023-03-01T07:10:45;-1.30;99.90
15239;DHT22;7722;53.274;9.500;2023-03-01T07:13:14;-1.30;99.90
15239;DHT22;7722;53.274;9.500;2023-03-01T07:15:41;-1.30;99.90
15239;DHT22;7722;53.274;9.500;2023-03-01T07:18:08;-1.20;99.90
15239;DHT22;7722;53.274;9.500;2023-03-01T07:20:37;-1.10;99.90
15239;DHT22;7722;53.274;9.500;2023-03-01T07:23:06;-1.10;99.90
15239;DHT22;7722;53.274;9.500;2023-03-01T07:25:34;-1.10;99.90
15239;DHT22;7722;53.274;9.500;2023-03-01T07:28:02;-1.00;99.90
15239;DHT22;7722;53.274;9.500;2023-03-01T07:30:30;-1.00;99.90
15239;DHT22;7722;53.274;9.500;2023-03-01T07:33:00;-0.90;99.90
15239;DHT22;7722;53.274;9.500;2023-03-01T07:35:28;-0.90;99.90
15239;DHT22;7722;53.274;9.500;2023-03-01T07:37:57;-0.90;99.90
15239;DHT22;7722;53.274;9.500;2023-03-01T07:40:24;-0.80;99.90
15239;DHT22;7722;53.274;9.500;2023-03-01T07:43:02;-0.80;99.90
15239;DHT22;7722;53.274;9.500;2023-03-01T07:45:31;-0.70;99.90
15239;DHT22;7722;53.274;9.500;2023-03-01T07:48:37;-0.60;99.90
15239;DHT22;7722;53.274;9.500;2023-03-01T07:50:55;-0.70;99.90
15239;DHT22;7722;53.274;9.500;2023-03-01T07:53:26;-0.60;99.90
15239;DHT22;7722;53.274;9.500;2023-03-01T07:56:06;-0.40;99.90
15239;DHT22;7722;53.274;9.500;2023-03-01T07:58:48;-0.30;99.90
15239;DHT22;7722;53.274;9.500;2023-03-01T08:01:21;-0.30;99.90
15239;DHT22;7722;53.274;9.500;2023-03-01T08:03:54;-0.30;99.90
15239;DHT22;7722;53.274;9.500;2023-03-01T08:06:37;-0.20;99.90
15239;DHT22;7722;53.274;9.500;2023-03-01T08:09:04;-0.10;99.90
15239;DHT22;7722;53.274;9.500;2023-03-01T08:11:55;-0.10;99.90
15239;DHT22;7722;53.274;9.500;2023-03-01T08:24:17;0.40;99.90
15239;DHT22;7722;53.274;9.500;2023-03-01T08:36:29;0.80;99.90
15239;DHT22;7722;53.274;9.500;2023-03-01T08:47:01;1.20;99.90
15239;DHT22;7722;53.274;9.500;2023-03-01T08:49:30;1.20;99.90
15239;DHT22;7722;53.274;9.500;2023-03-01T08:51:58;1.40;99.90
15239;DHT22;7722;53.274;9.500;2023-03-01T08:54:25;1.50;99.90
15239;DHT22;7722;53.274;9.500;2023-03-01T08:56:52;1.50;99.90
15239;DHT22;7722;53.274;9.500;2023-03-01T08:59:19;1.70;99.90
15239;DHT22;7722;53.274;9.500;2023-03-01T09:01:46;1.80;99.90
15239;DHT22;7722;53.274;9.500;2023-03-01T09:04:14;2.10;99.90
15239;DHT22;7722;53.274;9.500;2023-03-01T09:06:41;2.20;99.90
15239;DHT22;7722;53.274;9.500;2023-03-01T09:09:13;2.20;99.90
15239;DHT22;7722;53.274;9.500;2023-03-01T09:11:42;2.40;99.90
15239;DHT22;7722;53.274;9.500;2023-03-01T09:14:09;2.30;99.90
15239;DHT22;7722;53.274;9.500;2023-03-01T09:16:36;2.40;99.90
15239;DHT22;7722;53.274;9.500;2023-03-01T09:19:03;2.30;99.90
15239;DHT22;7722;53.274;9.500;2023-03-01T09:21:32;2.50;99.90
15239;DHT22;7722;53.274;9.500;2023-03-01T09:23:59;2.50;99.90
15239;DHT22;7722;53.274;9.500;2023-03-01T09:26:26;2.60;99.90
15239;DHT22;7722;53.274;9.500;2023-03-01T09:28:55;2.60;99.90
15239;DHT22;7722;53.274;9.500;2023-03-01T09:31:23;2.60;99.90
15239;DHT22;7722;53.274;9.500;2023-03-01T09:33:52;2.70;99.90
15239;DHT22;7722;53.274;9.500;2023-03-01T09:36:21;2.60;99.90
15239;DHT22;7722;53.274;9.500;2023-03-01T09:38:50;2.80;99.90
15239;DHT22;7722;53.274;9.500;2023-03-01T09:41:36;3.00;99.90
15239;DHT22;7722;53.274;9.500;2023-03-01T09:44:11;2.90;99.90
15239;DHT22;7722;53.274;9.500;2023-03-01T09:46:42;3.10;99.90
15239;DHT22;7722;53.274;9.500;2023-03-01T09:49:14;3.40;99.90
15239;DHT22;7722;53.274;9.500;2023-03-01T09:51:48;3.50;99.90
15239;DHT22;7722;53.274;9.500;2023-03-01T09:54:22;3.50;99.90
15239;DHT22;7722;53.274;9.500;2023-03-01T09:56:59;4.00;99.90
15239;DHT22;7722;53.274;9.500;2023-03-01T09:59:30;4.30;99.90
15239;DHT22;7722;53.274;9.500;2023-03-01T10:02:14;4.10;99.90
15239;DHT22;7722;53.274;9.500;2023-03-01T10:04:46;4.30;99.90
15239;DHT22;7722;53.274;9.500;2023-03-01T10:07:25;4.60;99.90
15239;DHT22;7722;53.274;9.500;2023-03-01T10:09:56;4.80;99.90
15239;DHT22;7722;53.274;9.500;2023-03-01T10:12:26;4.70;99.90
15239;DHT22;7722;53.274;9.500;2023-03-01T10:14:57;4.60;99.90
15239;DHT22;7722;53.274;9.500;2023-03-01T10:17:32;4.80;99.90
15239;DHT22;7722;53.274;9.500;2023-03-01T10:20:17;4.70;99.90
15239;DHT22;7722;53.274;9.500;2023-03-01T10:22:45;4.60;99.90
15239;DHT22;7722;53.274;9.500;2023-03-01T10:25:22;4.60;99.90
15239;DHT22;7722;53.274;9.500;2023-03-01T10:27:52;4.70;99.90
15239;DHT22;7722;53.274;9.500;2023-03-01T10:30:22;5.20;99.90
15239;DHT22;7722;53.274;9.500;2023-03-01T10:32:53;5.50;99.90
15239;DHT22;7722;53.274;9.500;2023-03-01T10:35:23;5.60;99.90
15239;DHT22;7722;53.274;9.500;2023-03-01T10:37:58;5.60;99.90
15239;DHT22;7722;53.274;9.500;2023-03-01T10:40:27;5.70;99.90
15239;DHT22;7722;53.274;9.500;2023-03-01T10:42:57;5.70;99.90
15239;DHT22;7722;53.274;9.500;2023-03-01T10:45:34;5.60;99.90
15239;DHT22;7722;53.274;9.500;2023-03-01T10:48:13;5.80;99.90
15239;DHT22;7722;53.274;9.500;2023-03-01T10:50:41;6.30;99.90
15239;DHT22;7722;53.274;9.500;2023-03-01T10:53:21;6.50;99.90
15239;DHT22;7722;53.274;9.500;2023-03-01T10:55:59;6.60;99.90
15239;DHT22;7722;53.274;9.500;2023-03-01T10:58:27;6.90;99.90
15239;DHT22;7722;53.274;9.500;2023-03-01T11:00:57;7.00;99.90
15239;DHT22;7722;53.274;9.500;2023-03-01T11:03:26;7.40;99.90
15239;DHT22;7722;53.274;9.500;2023-03-01T11:05:57;7.40;99.90
15239;DHT22;7722;53.274;9.500;2023-03-01T11:08:37;7.20;99.90
15239;DHT22;7722;53.274;9.500;2023-03-01T11:11:18;7.30;99.90
15239;DHT22;7722;53.274;9.500;2023-03-01T11:13:57;7.50;99.90
15239;DHT22;7722;53.274;9.500;2023-03-01T11:16:31;7.40;99.90
15239;DHT22;7722;53.274;9.500;2023-03-01T11:21:47;7.60;99.90
15239;DHT22;7722;53.274;9.500;2023-03-01T11:24:17;7.80;99.90
15239;DHT22;7722;53.274;9.500;2023-03-01T11:26:52;8.20;99.90
15239;DHT22;7722;53.274;9.500;2023-03-01T11:29:27;7.90;99.90
15239;DHT22;7722;53.274;9.500;2023-03-01T11:32:00;7.80;99.90
15239;DHT22;7722;53.274;9.500;2023-03-01T11:34:37;8.00;99.90
15239;DHT22;7722;53.274;9.500;2023-03-01T11:37:13;7.70;99.90
15239;DHT22;7722;53.274;9.500;2023-03-01T11:39:46;7.90;99.90
15239;DHT22;7722;53.274;9.500;2023-03-01T11:42:23;7.90;99.90
15239;DHT22;7722;53.274;9.500;2023-03-01T11:44:54;8.40;99.90
15239;DHT22;7722;53.274;9.500;2023-03-01T11:47:33;8.20;99.90
15239;DHT22;7722;53.274;9.500;2023-03-01T11:50:18;8.60;99.90
15239;DHT22;7722;53.274;9.500;2023-03-01T11:52:57;9.20;99.90
15239;DHT22;7722;53.274;9.500;2023-03-01T11:55:36;8.90;99.90
15239;DHT22;7722;53.274;9.500;2023-03-01T11:58:25;8.90;99.90
15239;DHT22;7722;53.274;9.500;2023-03-01T12:01:11;8.80;99.90
15239;DHT22;7722;53.274;9.500;2023-03-01T12:04:17;8.90;99.90
15239;DHT22;7722;53.274;9.500;2023-03-01T12:06:55;8.70;99.90
15239;DHT22;7722;53.274;9.500;2023-03-01T12:09:47;9.20;99.90
15239;DHT22;7722;53.274;9.500;2023-03-01T12:12:30;9.60;99.90
15239;DHT22;7722;53.274;9.500;2023-03-01T12:15:24;9.70;99.90
15239;DHT22;7722;53.274;9.500;2023-03-01T12:21:14;10.10;98.10
15239;DHT22;7722;53.274;9.500;2023-03-01T12:26:34;10.20;98.50
15239;DHT22;7722;53.274;9.500;2023-03-01T12:32:12;10.50;98.90
15239;DHT22;7722;53.274;9.500;2023-03-01T12:35:11;10.10;97.70
15239;DHT22;7722;53.274;9.500;2023-03-01T12:37:58;10.10;98.90
15239;DHT22;7722;53.274;9.500;2023-03-01T12:40:46;9.70;98.10
15239;DHT22;7722;53.274;9.500;2023-03-01T12:43:26;9.80;99.90
15239;DHT22;7722;53.274;9.500;2023-03-01T12:46:15;10.00;98.00
15239;DHT22;7722;53.274;9.500;2023-03-01T12:48:56;10.60;98.90
15239;DHT22;7722;53.274;9.500;2023-03-01T12:51:29;11.20;97.70
15239;DHT22;7722;53.274;9.500;2023-03-01T12:53:59;10.90;96.70
15239;DHT22;7722;53.274;9.500;2023-03-01T12:56:30;10.40;97.30
15239;DHT22;7722;53.274;9.500;2023-03-01T12:59:04;11.00;97.70
15239;DHT22;7722;53.274;9.500;2023-03-01T13:01:42;11.70;96.40
15239;DHT22;7722;53.274;9.500;2023-03-01T13:04:31;11.70;97.70
15239;DHT22;7722;53.274;9.500;2023-03-01T13:07:22;11.40;96.70
15239;DHT22;7722;53.274;9.500;2023-03-01T13:09:59;11.50;98.00
15239;DHT22;7722;53.274;9.500;2023-03-01T13:12:52;11.90;96.40
15239;DHT22;7722;53.274;9.500;2023-03-01T13:15:28;11.70;97.80
15239;DHT22;7722;53.274;9.500;2023-03-01T13:17:56;11.30;97.30
15239;DHT22;7722;53.274;9.500;2023-03-01T13:20:30;11.50;96.70
15239;DHT22;7722;53.274;9.500;2023-03-01T13:23:10;12.20;95.90
15239;DHT22;7722;53.274;9.500;2023-03-01T13:26:06;12.60;96.20
15239;DHT22;7722;53.274;9.500;2023-03-01T13:31:56;13.00;95.10
15239;DHT22;7722;53.274;9.500;2023-03-01T13:34:47;12.70;94.30
15239;DHT22;7722;53.274;9.500;2023-03-01T13:37:31;12.40;94.10
15239;DHT22;7722;53.274;9.500;2023-03-01T13:42:46;11.40;95.40
15239;DHT22;7722;53.274;9.500;2023-03-01T13:45:22;11.20;95.70
15239;DHT22;7722;53.274;9.500;2023-03-01T13:47:55;11.00;95.60
15239;DHT22;7722;53.274;9.500;2023-03-01T13:50:25;11.40;96.20
15239;DHT22;7722;53.274;9.500;2023-03-01T13:52:57;11.30;95.80
15239;DHT22;7722;53.274;9.500;2023-03-01T13:55:37;11.70;95.50
15239;DHT22;7722;53.274;9.500;2023-03-01T13:58:19;11.50;96.10
15239;DHT22;7722;53.274;9.500;2023-03-01T14:00:47;12.00;95.70
15239;DHT22;7722;53.274;9.500;2023-03-01T14:03:15;12.70;94.30
15239;DHT22;7722;53.274;9.500;2023-03-01T14:05:44;11.90;95.20
15239;DHT22;7722;53.274;9.500;2023-03-01T14:08:26;11.80;94.80
15239;DHT22;7722;53.274;9.500;2023-03-01T14:11:01;12.10;96.40
15239;DHT22;7722;53.274;9.500;2023-03-01T14:13:44;13.10;94.00
15239;DHT22;7722;53.274;9.500;2023-03-01T14:16:24;14.10;93.40
15239;DHT22;7722;53.274;9.500;2023-03-01T14:19:01;13.10;93.80
15239;DHT22;7722;53.274;9.500;2023-03-01T14:21:32;12.00;95.40
15239;DHT22;7722;53.274;9.500;2023-03-01T14:24:02;12.40;94.20
15239;DHT22;7722;53.274;9.500;2023-03-01T14:26:30;11.00;96.20
15239;DHT22;7722;53.274;9.500;2023-03-01T14:28:58;11.00;98.10
15239;DHT22;7722;53.274;9.500;2023-03-01T14:31:37;10.90;97.80
15239;DHT22;7722;53.274;9.500;2023-03-01T14:34:05;11.20;96.80
15239;DHT22;7722;53.274;9.500;2023-03-01T14:36:34;11.00;97.10
15239;DHT22;7722;53.274;9.500;2023-03-01T14:39:16;11.00;96.50
15239;DHT22;7722;53.274;9.500;2023-03-01T14:41:44;10.90;97.20
15239;DHT22;7722;53.274;9.500;2023-03-01T14:44:15;10.60;98.00
15239;DHT22;7722;53.274;9.500;2023-03-01T14:46:44;10.40;97.80
15239;DHT22;7722;53.274;9.500;2023-03-01T14:49:14;10.10;98.00
15239;DHT22;7722;53.274;9.500;2023-03-01T14:51:46;10.30;98.50
15239;DHT22;7722;53.274;9.500;2023-03-01T14:54:25;10.20;98.10
15239;DHT22;7722;53.274;9.500;2023-03-01T14:56:57;9.60;99.90
15239;DHT22;7722;53.274;9.500;2023-03-01T14:59:25;9.80;99.90
15239;DHT22;7722;53.274;9.500;2023-03-01T15:01:54;9.80;99.90
15239;DHT22;7722;53.274;9.500;2023-03-01T15:04:23;10.20;99.10
15239;DHT22;7722;53.274;9.500;2023-03-01T15:06:51;10.50;98.90
15239;DHT22;7722;53.274;9.500;2023-03-01T15:09:19;10.60;98.50
15239;DHT22;7722;53.274;9.500;2023-03-01T15:11:48;10.20;98.50
15239;DHT22;7722;53.274;9.500;2023-03-01T15:14:40;10.30;98.70
15239;DHT22;7722;53.274;9.500;2023-03-01T15:17:23;9.90;99.60
15239;DHT22;7722;53.274;9.500;2023-03-01T15:19:53;9.60;99.90
15239;DHT22;7722;53.274;9.500;2023-03-01T15:22:21;8.90;99.90
15239;DHT22;7722;53.274;9.500;2023-03-01T15:24:49;9.00;99.90
15239;DHT22;7722;53.274;9.500;2023-03-01T15:27:19;8.80;99.90
15239;DHT22;7722;53.274;9.500;2023-03-01T15:29:49;8.40;99.90
15239;DHT22;7722;53.274;9.500;2023-03-01T15:32:29;8.50;99.90
15239;DHT22;7722;53.274;9.500;2023-03-01T15:34:57;8.30;99.90
15239;DHT22;7722;53.274;9.500;2023-03-01T15:37:40;8.10;99.90
15239;DHT22;7722;53.274;9.500;2023-03-01T15:40:21;8.00;99.90
15239;DHT22;7722;53.274;9.500;2023-03-01T15:42:51;7.70;99.90
15239;DHT22;7722;53.274;9.500;2023-03-01T15:45:23;7.50;99.90
15239;DHT22;7722;53.274;9.500;2023-03-01T15:47:53;7.10;99.90
15239;DHT22;7722;53.274;9.500;2023-03-01T15:50:25;6.90;99.90
15239;DHT22;7722;53.274;9.500;2023-03-01T15:52:53;6.80;99.90
15239;DHT22;7722;53.274;9.500;2023-03-01T15:55:22;6.80;99.90
15239;DHT22;7722;53.274;9.500;2023-03-01T15:57:58;6.60;99.90
15239;DHT22;7722;53.274;9.500;2023-03-01T16:00:27;6.50;99.90
15239;DHT22;7722;53.274;9.500;2023-03-01T16:02:54;6.50;99.90
15239;DHT22;7722;53.274;9.500;2023-03-01T16:05:22;6.30;99.90
15239;DHT22;7722;53.274;9.500;2023-03-01T16:07:50;6.20;99.90
15239;DHT22;7722;53.274;9.500;2023-03-01T16:10:17;6.10;99.90
15239;DHT22;7722;53.274;9.500;2023-03-01T16:12:44;6.20;99.90
15239;DHT22;7722;53.274;9.500;2023-03-01T16:15:17;6.10;99.90
15239;DHT22;7722;53.274;9.500;2023-03-01T16:17:44;5.90;99.90
15239;DHT22;7722;53.274;9.500;2023-03-01T16:20:12;5.80;99.90
15239;DHT22;7722;53.274;9.500;2023-03-01T16:22:41;5.90;99.90
15239;DHT22;7722;53.274;9.500;2023-03-01T16:25:09;5.90;99.90
15239;DHT22;7722;53.274;9.500;2023-03-01T16:27:37;5.80;99.90
15239;DHT22;7722;53.274;9.500;2023-03-01T16:30:06;5.70;99.90
15239;DHT22;7722;53.274;9.500;2023-03-01T16:32:37;5.60;99.90
15239;DHT22;7722;53.274;9.500;2023-03-01T16:35:05;5.50;99.90
15239;DHT22;7722;53.274;9.500;2023-03-01T16:37:33;5.40;99.90
15239;DHT22;7722;53.274;9.500;2023-03-01T16:40:00;5.30;99.90
15239;DHT22;7722;53.274;9.500;2023-03-01T16:42:28;5.10;99.90
15239;DHT22;7722;53.274;9.500;2023-03-01T16:44:55;5.00;99.90
15239;DHT22;7722;53.274;9.500;2023-03-01T16:47:22;5.00;99.90
15239;DHT22;7722;53.274;9.500;2023-03-01T16:49:53;4.90;99.90
15239;DHT22;7722;53.274;9.500;2023-03-01T16:52:20;4.80;99.90
15239;DHT22;7722;53.274;9.500;2023-03-01T16:54:48;4.70;99.90
15239;DHT22;7722;53.274;9.500;2023-03-01T16:57:15;4.60;99.90
15239;DHT22;7722;53.274;9.500;2023-03-01T16:59:42;4.50;99.90
15239;DHT22;7722;53.274;9.500;2023-03-01T17:02:10;4.40;99.90
15239;DHT22;7722;53.274;9.500;2023-03-01T17:04:38;4.40;99.90
15239;DHT22;7722;53.274;9.500;2023-03-01T17:07:07;4.30;99.90